Time;durP1;ratioP1;P1;durP2;ratioP2;P2;SDS_P1;SDS_P2;PMS_P1;PMS_P2;Temp;Humidity;BMP_temperature;BMP_pressure;BME280_temperature;BME280_humidity;BME280_pressure;Samples;Min_cycle;Max_cycle;Signal;HPM_P1;HPM_P2
2024/03/02 00:00:25;;;;;;;3.27;2.10;;;8.50;99.90;;;;;;5056913;28;20489;-80
2024/03/02 00:02:53;;;;;;;3.03;2.00;;;8.50;99.90;;;;;;5056696;28;20454;-82
2024/03/02 00:05:21;;;;;;;2.80;1.60;;;8.60;99.90;;;;;;5055699;28;20504;-81
2024/03/02 00:07:55;;;;;;;2.53;1.50;;;8.60;99.90;;;;;;5055927;28;20497;-81
2024/03/02 00:10:29;;;;;;;2.77;1.60;;;8.50;99.90;;;;;;5055745;28;20478;-82
2024/03/02 00:12:56;;;;;;;2.80;1.87;;;8.50;99.90;;;;;;5055800;28;20446;-82
2024/03/02 00:15:42;;;;;;;3.60;1.87;;;8.50;99.90;;;;;;5056490;28;20482;-82
2024/03/02 00:18:12;;;;;;;2.90;1.70;;;8.60;99.90;;;;;;5057069;28;20819;-83
2024/03/02 00:20:39;;;;;;;4.33;1.97;;;8.60;99.90;;;;;;5057658;28;20952;-83
2024/03/02 00:23:07;;;;;;;2.43;1.30;;;8.60;99.90;;;;;;5056415;28;20481;-81
2024/03/02 00:25:41;;;;;;;3.03;1.60;;;8.60;99.90;;;;;;5051617;28;20537;-82
2024/03/02 00:28:17;;;;;;;2.20;1.27;;;8.60;99.90;;;;;;5049433;28;20494;-81
2024/03/02 00:30:55;;;;;;;2.53;1.70;;;8.60;99.90;;;;;;5055469;28;20526;-81
2024/03/02 00:33:24;;;;;;;2.93;1.40;;;8.60;99.90;;;;;;5053728;28;20486;-80
2024/03/02 00:35:51;;;;;;;4.13;1.53;;;8.60;99.90;;;;;;5044446;28;20469;-81
2024/03/02 00:38:18;;;;;;;2.57;1.37;;;8.60;99.90;;;;;;5053003;28;20451;-79
2024/03/02 00:40:46;;;;;;;5.07;1.57;;;8.60;99.90;;;;;;5053316;28;20550;-80
2024/03/02 00:43:42;;;;;;;2.70;1.50;;;8.50;99.90;;;;;;5053123;28;20553;-80
2024/03/02 00:46:09;;;;;;;2.87;1.27;;;8.50;99.90;;;;;;5054464;28;20458;-81
2024/03/02 00:48:37;;;;;;;3.17;1.60;;;8.40;99.90;;;;;;5056152;28;20497;-82
2024/03/02 00:51:05;;;;;;;3.00;1.73;;;8.40;99.90;;;;;;5054635;28;20546;-81
2024/03/02 00:53:33;;;;;;;2.53;1.33;;;8.40;99.90;;;;;;5060496;28;20490;-81
2024/03/02 00:56:00;;;;;;;2.10;1.20;;;8.40;99.90;;;;;;5060398;28;20455;-81
2024/03/02 00:58:27;;;;;;;2.30;1.53;;;8.40;99.90;;;;;;5060871;28;20455;-81
2024/03/02 01:00:54;;;;;;;3.10;1.60;;;8.40;99.90;;;;;;5050551;28;20458;-80
2024/03/02 01:03:21;;;;;;;3.93;1.40;;;8.40;99.90;;;;;;5056934;28;20475;-80
2024/03/02 01:05:49;;;;;;;1.73;1.00;;;8.40;99.90;;;;;;5051842;28;20463;-79
2024/03/02 01:08:16;;;;;;;1.80;1.20;;;8.40;99.90;;;;;;5059394;28;20496;-82
2024/03/02 01:10:43;;;;;;;2.00;1.10;;;8.40;99.90;;;;;;5058791;28;20877;-82
2024/03/02 01:13:10;;;;;;;2.47;1.43;;;8.50;99.90;;;;;;5058770;28;20476;-80
2024/03/02 01:15:37;;;;;;;2.30;1.13;;;8.50;99.90;;;;;;5056197;28;20953;-80
2024/03/02 01:18:04;;;;;;;2.40;1.00;;;8.50;99.90;;;;;;5045967;28;20536;-82
2024/03/02 01:20:31;;;;;;;2.80;1.00;;;8.60;99.90;;;;;;5055785;28;20626;-79
2024/03/02 01:22:59;;;;;;;2.47;1.27;;;8.60;99.90;;;;;;5053119;28;20478;-81
2024/03/02 01:25:26;;;;;;;1.80;1.00;;;8.70;99.90;;;;;;5048679;28;20491;-80
2024/03/02 01:27:52;;;;;;;2.73;1.00;;;8.70;99.90;;;;;;5056066;28;20564;-80
2024/03/02 01:30:19;;;;;;;2.00;1.17;;;8.80;99.90;;;;;;5056465;28;20967;-80
2024/03/02 01:32:46;;;;;;;2.40;1.40;;;8.80;99.90;;;;;;5056355;28;20896;-81
2024/03/02 01:35:14;;;;;;;2.23;1.10;;;8.80;99.90;;;;;;5057191;28;20542;-81
2024/03/02 01:37:41;;;;;;;2.70;1.40;;;8.80;99.90;;;;;;5056297;28;20947;-79
2024/03/02 01:40:11;;;;;;;3.50;1.40;;;8.90;99.90;;;;;;5056527;28;20920;-80
2024/03/02 01:42:38;;;;;;;3.63;1.10;;;9.00;99.90;;;;;;5056599;28;20482;-82
2024/03/02 01:45:08;;;;;;;2.77;1.40;;;9.10;99.90;;;;;;5056375;28;20481;-79
2024/03/02 01:47:35;;;;;;;2.20;1.20;;;9.20;99.90;;;;;;5056238;28;20545;-81
2024/03/02 01:50:02;;;;;;;2.10;1.10;;;9.20;99.90;;;;;;5056956;28;20447;-80
2024/03/02 01:52:29;;;;;;;2.30;1.03;;;9.10;99.90;;;;;;5054936;28;20451;-79
2024/03/02 01:54:56;;;;;;;3.40;1.13;;;9.20;99.90;;;;;;5050000;28;20516;-80
2024/03/02 01:57:25;;;;;;;1.97;1.17;;;9.10;99.90;;;;;;5057274;28;20462;-81
2024/03/02 01:59:52;;;;;;;2.90;1.10;;;9.00;99.90;;;;;;5052240;28;20459;-81
2024/03/02 02:02:20;;;;;;;5.30;1.90;;;9.00;99.90;;;;;;5053606;28;20459;-80
2024/03/02 02:04:46;;;;;;;2.87;1.10;;;8.90;99.90;;;;;;5053498;28;20495;-81
2024/03/02 02:07:14;;;;;;;2.57;1.17;;;8.80;99.90;;;;;;5052542;28;20491;-83
2024/03/02 02:09:41;;;;;;;1.80;0.90;;;8.70;99.90;;;;;;5051272;28;20456;-81
2024/03/02 02:12:09;;;;;;;2.07;1.03;;;8.70;99.90;;;;;;5052292;28;21027;-81
2024/03/02 02:14:39;;;;;;;1.90;0.80;;;8.60;99.90;;;;;;5048910;28;20479;-81
2024/03/02 02:17:06;;;;;;;1.93;1.20;;;8.60;99.90;;;;;;5056693;28;20452;-80
2024/03/02 02:19:33;;;;;;;3.80;1.37;;;8.60;99.90;;;;;;5057842;28;20455;-83
2024/03/02 02:22:01;;;;;;;2.20;1.30;;;8.60;99.90;;;;;;5061922;28;20533;-80
2024/03/02 02:24:28;;;;;;;2.00;1.10;;;8.60;99.90;;;;;;5062696;28;20475;-80
2024/03/02 02:26:55;;;;;;;2.27;1.10;;;8.50;99.90;;;;;;5064120;28;20478;-79
2024/03/02 02:29:22;;;;;;;3.03;1.23;;;8.50;99.90;;;;;;5054223;28;20453;-82
2024/03/02 02:31:48;;;;;;;3.40;1.33;;;8.40;99.90;;;;;;5050125;28;20519;-82
2024/03/02 02:34:15;;;;;;;3.13;1.50;;;8.40;99.90;;;;;;5051177;28;20503;-82
2024/03/02 02:36:43;;;;;;;3.10;1.17;;;8.40;99.90;;;;;;5056317;28;20453;-81
2024/03/02 02:39:15;;;;;;;1.67;0.90;;;8.40;99.90;;;;;;5050771;28;20488;-81
2024/03/02 02:41:42;;;;;;;2.03;1.00;;;8.50;99.90;;;;;;5056905;28;20896;-81
2024/03/02 02:44:11;;;;;;;1.97;1.00;;;8.60;99.90;;;;;;5057826;28;20480;-82
2024/03/02 02:46:38;;;;;;;2.43;1.10;;;8.70;99.90;;;;;;5056078;28;20473;-81
2024/03/02 02:49:05;;;;;;;2.93;1.03;;;8.70;99.90;;;;;;5051680;28;20495;-81
2024/03/02 02:51:31;;;;;;;1.90;1.00;;;8.80;99.90;;;;;;5055350;28;21035;-81
2024/03/02 02:53:58;;;;;;;4.40;1.23;;;8.90;99.90;;;;;;5057287;28;20574;-82
2024/03/02 02:56:26;;;;;;;1.90;1.13;;;9.00;99.90;;;;;;5056356;28;20470;-82
2024/03/02 02:58:53;;;;;;;2.47;1.47;;;8.90;99.90;;;;;;5056727;28;20454;-81
2024/03/02 03:01:20;;;;;;;2.13;1.00;;;8.90;99.90;;;;;;5057036;28;20464;-81
2024/03/02 03:03:47;;;;;;;2.50;1.03;;;8.90;99.90;;;;;;5057001;28;20555;-82
2024/03/02 03:06:14;;;;;;;2.10;1.20;;;8.90;99.90;;;;;;5056641;28;20528;-81
2024/03/02 03:08:41;;;;;;;1.70;0.93;;;8.80;99.90;;;;;;5057242;28;20585;-82
2024/03/02 03:11:07;;;;;;;3.60;1.03;;;8.80;99.90;;;;;;5056767;28;20981;-83
2024/03/02 03:13:37;;;;;;;1.83;1.17;;;8.80;99.90;;;;;;5057890;28;20889;-82
2024/03/02 03:16:05;;;;;;;2.33;1.30;;;8.80;99.90;;;;;;5056264;28;20458;-81
2024/03/02 03:18:31;;;;;;;2.80;1.20;;;8.80;99.90;;;;;;5057047;28;20837;-81
2024/03/02 03:20:58;;;;;;;2.93;1.20;;;8.80;99.90;;;;;;5056921;28;20460;-82
2024/03/02 03:23:25;;;;;;;2.10;1.10;;;8.90;99.90;;;;;;5057013;28;20228;-81
2024/03/02 03:25:52;;;;;;;3.63;1.40;;;8.90;99.90;;;;;;5056018;28;20488;-82
2024/03/02 03:28:19;;;;;;;2.40;1.07;;;8.90;99.90;;;;;;5057187;28;20494;-82
2024/03/02 03:30:47;;;;;;;2.20;0.90;;;9.00;99.90;;;;;;5048897;28;20527;-82
2024/03/02 03:33:14;;;;;;;1.97;1.37;;;9.10;99.90;;;;;;5057516;28;20475;-82
2024/03/02 03:35:41;;;;;;;5.50;1.10;;;9.00;99.90;;;;;;5056332;28;20451;-80
2024/03/02 03:38:07;;;;;;;1.97;1.10;;;9.10;99.90;;;;;;5056160;28;20465;-81
2024/03/02 03:40:34;;;;;;;2.43;1.10;;;9.20;99.90;;;;;;5055692;28;20546;-80
2024/03/02 03:43:01;;;;;;;2.27;1.10;;;9.20;99.90;;;;;;5054372;28;20973;-81
2024/03/02 03:45:28;;;;;;;3.30;1.37;;;9.30;99.90;;;;;;5055889;28;20467;-83
2024/03/02 03:47:56;;;;;;;2.83;1.10;;;9.30;99.90;;;;;;5057526;28;20488;-80
2024/03/02 03:50:23;;;;;;;2.43;1.17;;;9.30;99.90;;;;;;5050518;28;20458;-80
2024/03/02 03:52:50;;;;;;;4.00;1.27;;;9.40;99.90;;;;;;5059576;28;20484;-81
2024/03/02 03:55:16;;;;;;;2.10;1.10;;;9.40;99.90;;;;;;5059525;28;20550;-81
2024/03/02 03:57:43;;;;;;;1.90;1.10;;;9.50;99.90;;;;;;5058329;28;20446;-81
2024/03/02 04:00:11;;;;;;;2.43;1.10;;;9.50;99.90;;;;;;5060482;28;20977;-83
2024/03/02 04:02:38;;;;;;;3.03;1.30;;;9.50;99.90;;;;;;5060306;28;20525;-82
2024/03/02 04:05:10;;;;;;;2.00;0.90;;;9.40;99.90;;;;;;5048611;28;20552;-80
2024/03/02 04:07:40;;;;;;;2.67;0.80;;;9.40;99.90;;;;;;5055152;28;20456;-81
2024/03/02 04:10:09;;;;;;;2.00;1.20;;;9.40;99.90;;;;;;5055526;28;20512;-80
2024/03/02 04:12:37;;;;;;;2.73;1.10;;;9.30;99.90;;;;;;5046760;28;20536;-81
2024/03/02 04:15:06;;;;;;;2.57;1.23;;;9.30;99.90;;;;;;5055540;28;20479;-82
2024/03/02 04:17:33;;;;;;;1.70;1.00;;;9.20;99.90;;;;;;5046531;28;20720;-81
2024/03/02 04:20:00;;;;;;;2.67;1.10;;;9.20;99.90;;;;;;5055453;28;20462;-82
2024/03/02 04:22:29;;;;;;;3.10;0.90;;;9.10;99.90;;;;;;5053923;28;20534;-83
2024/03/02 04:24:55;;;;;;;5.90;1.30;;;9.10;99.90;;;;;;5059317;28;20510;-80
2024/03/02 04:27:22;;;;;;;2.47;1.00;;;9.10;99.90;;;;;;5058768;28;20511;-81
2024/03/02 04:29:49;;;;;;;3.00;1.00;;;9.10;99.90;;;;;;5050386;28;20501;-81
2024/03/02 04:32:16;;;;;;;2.37;0.80;;;9.20;99.90;;;;;;5057950;28;20468;-80
2024/03/02 04:34:43;;;;;;;2.10;1.20;;;9.20;99.90;;;;;;5057957;28;21070;-81
2024/03/02 04:37:12;;;;;;;2.50;1.10;;;9.20;99.90;;;;;;5058122;28;20557;-81
2024/03/02 04:39:40;;;;;;;2.93;1.13;;;9.30;99.90;;;;;;5058534;28;20456;-81
2024/03/02 04:42:07;;;;;;;4.13;1.13;;;9.30;99.90;;;;;;5058506;28;20452;-81
2024/03/02 04:44:33;;;;;;;2.43;0.90;;;9.30;99.90;;;;;;5050661;28;20588;-81
2024/03/02 04:47:00;;;;;;;2.00;1.10;;;9.30;99.90;;;;;;5057751;28;20447;-82
2024/03/02 04:49:27;;;;;;;3.20;1.10;;;9.20;99.90;;;;;;5049642;28;20475;-81
2024/03/02 04:51:54;;;;;;;1.93;1.00;;;9.20;99.90;;;;;;5054427;28;20466;-82
2024/03/02 04:54:20;;;;;;;2.93;1.37;;;9.20;99.90;;;;;;5054052;28;20474;-81
2024/03/02 04:56:50;;;;;;;2.77;1.00;;;9.10;99.90;;;;;;5049695;28;20535;-82
2024/03/02 04:59:17;;;;;;;2.30;1.20;;;8.90;99.90;;;;;;5058975;28;20866;-82
2024/03/02 05:01:44;;;;;;;4.23;1.03;;;8.80;99.90;;;;;;5058769;28;20459;-82
2024/03/02 05:04:11;;;;;;;2.57;1.20;;;8.70;99.90;;;;;;5058599;28;20573;-81
2024/03/02 05:06:40;;;;;;;2.77;1.30;;;8.70;99.90;;;;;;5058750;28;20458;-81
2024/03/02 05:09:07;;;;;;;2.17;0.93;;;8.50;99.90;;;;;;5058699;28;20928;-81
2024/03/02 05:11:59;;;;;;;2.30;1.20;;;8.40;99.90;;;;;;5056192;28;20539;-81
2024/03/02 05:14:26;;;;;;;2.57;1.27;;;8.30;99.90;;;;;;5057243;28;20998;-82
2024/03/02 05:16:53;;;;;;;1.90;0.90;;;8.20;99.90;;;;;;5060371;28;20821;-82
2024/03/02 05:19:19;;;;;;;2.30;1.17;;;8.10;99.90;;;;;;5060107;28;20448;-82
2024/03/02 05:21:46;;;;;;;2.50;0.90;;;8.00;99.90;;;;;;5059831;28;20542;-82
2024/03/02 05:24:13;;;;;;;2.67;0.90;;;8.10;99.90;;;;;;5059698;28;20477;-81
2024/03/02 05:26:40;;;;;;;2.13;1.30;;;8.00;99.90;;;;;;5059301;28;20466;-81
2024/03/02 05:29:07;;;;;;;2.20;1.20;;;7.90;99.90;;;;;;5059530;28;20555;-81
2024/03/02 05:31:35;;;;;;;1.50;0.80;;;7.90;99.90;;;;;;5059701;28;20528;-82
2024/03/02 05:34:02;;;;;;;3.00;1.00;;;7.80;99.90;;;;;;5058969;28;20569;-82
2024/03/02 05:36:29;;;;;;;1.97;1.20;;;7.80;99.90;;;;;;5058850;28;20457;-80
2024/03/02 05:38:56;;;;;;;1.70;1.03;;;7.70;99.90;;;;;;5058942;28;20454;-80
2024/03/02 05:41:24;;;;;;;3.37;1.77;;;7.60;99.90;;;;;;5057855;28;20855;-80
2024/03/02 05:43:50;;;;;;;1.80;1.03;;;7.60;99.90;;;;;;5058082;28;20479;-79
2024/03/02 05:46:17;;;;;;;5.33;1.33;;;7.70;99.90;;;;;;5056680;28;20460;-79
2024/03/02 05:48:45;;;;;;;2.03;1.13;;;7.70;99.90;;;;;;5057786;28;20502;-79
2024/03/02 05:51:12;;;;;;;2.77;1.20;;;7.70;99.90;;;;;;5057358;28;21009;-80
2024/03/02 05:53:39;;;;;;;3.30;1.27;;;7.80;99.90;;;;;;5058580;28;20499;-81
2024/03/02 05:56:06;;;;;;;2.63;1.23;;;7.70;99.90;;;;;;5056481;28;20465;-81
2024/03/02 05:58:46;;;;;;;2.77;1.27;;;7.70;99.90;;;;;;5057114;28;20875;-81
2024/03/02 06:01:13;;;;;;;2.77;1.30;;;7.60;99.90;;;;;;5057514;28;20463;-80
2024/03/02 06:03:39;;;;;;;3.73;1.40;;;7.50;99.90;;;;;;5050589;28;20471;-81
2024/03/02 06:06:07;;;;;;;2.57;1.40;;;7.60;99.90;;;;;;5047439;28;20974;-81
2024/03/02 06:08:35;;;;;;;3.23;1.47;;;7.70;99.90;;;;;;5053135;28;20501;-82
2024/03/02 06:11:01;;;;;;;2.70;1.27;;;7.60;99.90;;;;;;5049338;28;20458;-84
2024/03/02 06:13:28;;;;;;;5.80;1.73;;;7.70;99.90;;;;;;5053518;28;21147;-82
2024/03/02 06:15:55;;;;;;;2.30;1.40;;;7.70;99.90;;;;;;5051563;28;20537;-81
2024/03/02 06:18:22;;;;;;;3.07;1.50;;;7.70;99.90;;;;;;5046809;28;20549;-82
2024/03/02 06:20:49;;;;;;;3.83;1.57;;;7.80;99.90;;;;;;5053588;28;20485;-82
2024/03/02 06:23:17;;;;;;;2.80;1.43;;;7.80;99.90;;;;;;5050079;28;20465;-83
2024/03/02 06:25:46;;;;;;;2.70;1.67;;;7.80;99.90;;;;;;5053032;28;20443;-81
2024/03/02 06:28:15;;;;;;;3.50;1.70;;;7.80;99.90;;;;;;5050712;28;20442;-81
2024/03/02 06:30:42;;;;;;;3.30;1.77;;;7.80;99.90;;;;;;5052856;28;20459;-80
2024/03/02 06:33:08;;;;;;;3.80;1.87;;;7.80;99.90;;;;;;5050174;28;20472;-80
2024/03/02 06:35:36;;;;;;;2.60;1.60;;;7.80;99.90;;;;;;5049960;28;21042;-82
2024/03/02 06:38:03;;;;;;;3.00;2.10;;;7.80;99.90;;;;;;5050177;28;20837;-81
2024/03/02 06:40:31;;;;;;;2.87;1.90;;;7.70;99.90;;;;;;5046649;28;20535;-82
2024/03/02 06:42:58;;;;;;;3.27;1.70;;;7.80;99.90;;;;;;5047571;28;20458;-82
2024/03/02 06:45:25;;;;;;;3.43;2.07;;;7.70;99.90;;;;;;5053719;28;20451;-81
2024/03/02 06:47:51;;;;;;;3.20;2.10;;;7.80;99.90;;;;;;5047744;28;20460;-81
2024/03/02 06:50:18;;;;;;;3.40;2.10;;;7.80;99.90;;;;;;5049636;28;20620;-80
2024/03/02 06:52:45;;;;;;;3.40;2.20;;;7.80;99.90;;;;;;5052486;28;20458;-81
2024/03/02 06:55:12;;;;;;;3.43;2.33;;;7.80;99.90;;;;;;5047982;28;20461;-82
2024/03/02 06:57:39;;;;;;;2.43;1.77;;;7.90;99.90;;;;;;5061880;28;20476;-83
2024/03/02 07:00:08;;;;;;;4.07;2.40;;;7.90;99.90;;;;;;5065030;28;20447;-84
2024/03/02 07:02:35;;;;;;;2.93;2.00;;;7.90;99.90;;;;;;5059561;28;20454;-83
2024/03/02 07:05:02;;;;;;;4.07;2.30;;;7.90;99.90;;;;;;5067649;28;20478;-84
2024/03/02 07:07:29;;;;;;;4.33;2.43;;;8.00;99.90;;;;;;5059858;28;20498;-82
2024/03/02 07:09:56;;;;;;;4.17;2.13;;;8.00;99.90;;;;;;5056674;28;20542;-82
2024/03/02 07:12:23;;;;;;;4.90;2.53;;;8.00;99.90;;;;;;5052652;28;20452;-81
2024/03/02 07:17:37;;;;;;;4.43;2.67;;;8.20;99.90;;;;;;5048809;28;20436;-82
2024/03/02 07:20:04;;;;;;;6.10;3.00;;;8.10;99.90;;;;;;5050130;28;20442;-82
2024/03/02 07:22:31;;;;;;;3.47;2.23;;;8.20;99.90;;;;;;5053484;28;20442;-83
2024/03/02 07:24:58;;;;;;;4.73;2.30;;;8.30;99.90;;;;;;5050169;28;20479;-82
2024/03/02 07:27:25;;;;;;;4.33;2.00;;;8.30;99.90;;;;;;5050695;28;20462;-83
2024/03/02 07:29:53;;;;;;;4.20;2.23;;;8.40;99.90;;;;;;5054038;28;20594;-83
2024/03/02 07:32:19;;;;;;;2.90;1.73;;;8.40;99.90;;;;;;5056496;28;20811;-83
2024/03/02 07:34:46;;;;;;;3.70;1.97;;;8.40;99.90;;;;;;5053890;28;20480;-82
2024/03/02 07:37:13;;;;;;;2.90;1.70;;;8.50;99.90;;;;;;5057530;28;20474;-82
2024/03/02 07:39:40;;;;;;;4.03;2.17;;;8.60;99.90;;;;;;5058065;28;20659;-82
2024/03/02 07:42:07;;;;;;;3.10;2.00;;;8.60;99.90;;;;;;5056040;28;20522;-83
2024/03/02 07:44:34;;;;;;;4.10;2.33;;;8.70;99.90;;;;;;5055940;28;20562;-82
2024/03/02 07:47:02;;;;;;;2.60;1.67;;;8.80;99.90;;;;;;5054761;28;20454;-82
2024/03/02 07:49:29;;;;;;;6.87;2.37;;;8.90;99.90;;;;;;5055735;28;20502;-81
2024/03/02 07:51:56;;;;;;;3.53;2.03;;;9.00;99.90;;;;;;5055487;28;20538;-84
2024/03/02 07:54:23;;;;;;;4.33;2.50;;;9.00;99.90;;;;;;5057143;28;20583;-80
2024/03/02 07:56:50;;;;;;;2.73;1.60;;;9.10;99.90;;;;;;5055665;28;20452;-82
2024/03/02 07:59:16;;;;;;;4.07;2.30;;;9.10;99.90;;;;;;5057369;28;20897;-84
2024/03/02 08:01:44;;;;;;;2.90;2.00;;;9.20;99.90;;;;;;5058579;28;20551;-83
2024/03/02 08:04:12;;;;;;;3.90;2.30;;;9.20;99.90;;;;;;5056575;28;20586;-81
2024/03/02 08:06:38;;;;;;;4.43;2.43;;;9.30;99.90;;;;;;5053860;28;20459;-81
2024/03/02 08:09:09;;;;;;;4.30;2.27;;;9.40;99.90;;;;;;5051377;28;20491;-82
2024/03/02 08:11:37;;;;;;;4.30;2.13;;;9.40;99.90;;;;;;5055284;28;20481;-82
2024/03/02 08:14:04;;;;;;;3.77;1.90;;;9.50;99.90;;;;;;5055556;28;20495;-82
2024/03/02 08:16:31;;;;;;;3.53;1.93;;;9.50;99.90;;;;;;5038293;28;20526;-83
2024/03/02 08:18:58;;;;;;;3.70;2.10;;;9.60;99.90;;;;;;5056123;28;20526;-83
2024/03/02 08:21:30;;;;;;;3.70;1.90;;;9.60;99.90;;;;;;5053297;28;20462;-82
2024/03/02 08:23:57;;;;;;;3.57;1.70;;;9.60;99.90;;;;;;5056569;28;20558;-82
2024/03/02 08:26:24;;;;;;;4.13;2.03;;;9.70;99.90;;;;;;5055764;28;20452;-82
2024/03/02 08:28:51;;;;;;;3.90;2.10;;;9.80;99.90;;;;;;5052584;28;20473;-83
2024/03/02 08:31:18;;;;;;;3.73;1.80;;;10.10;99.90;;;;;;5053182;28;20475;-83
2024/03/02 08:33:45;;;;;;;2.37;1.37;;;10.40;99.90;;;;;;5055262;28;20479;-80
2024/03/02 08:36:12;;;;;;;4.10;1.70;;;10.70;99.90;;;;;;5056188;28;20543;-83
2024/03/02 08:38:40;;;;;;;6.13;2.20;;;11.20;99.90;;;;;;5055532;28;20488;-81
2024/03/02 08:41:08;;;;;;;2.33;1.60;;;11.20;99.90;;;;;;5057501;28;20531;-81
2024/03/02 08:43:35;;;;;;;2.60;1.53;;;11.10;99.90;;;;;;5057491;28;20485;-79
2024/03/02 08:46:02;;;;;;;5.97;1.50;;;11.00;99.90;;;;;;5057499;28;20966;-81
2024/03/02 08:48:29;;;;;;;3.90;1.60;;;10.90;99.90;;;;;;5057344;28;20538;-82
2024/03/02 08:50:56;;;;;;;4.37;1.60;;;10.90;99.90;;;;;;5057479;28;20493;-82
2024/03/02 08:53:22;;;;;;;5.63;1.80;;;10.90;99.90;;;;;;5057486;28;20505;-78
2024/03/02 08:55:51;;;;;;;3.03;1.67;;;11.10;99.90;;;;;;5055695;28;20454;-81
2024/03/02 08:58:17;;;;;;;2.60;1.60;;;11.40;99.90;;;;;;5057292;28;20539;-80
2024/03/02 09:00:45;;;;;;;3.13;1.60;;;11.60;99.90;;;;;;5057326;28;20910;-82
2024/03/02 09:03:11;;;;;;;3.07;1.50;;;11.60;99.90;;;;;;5058612;28;20485;-82
2024/03/02 09:05:38;;;;;;;2.80;1.57;;;11.80;99.90;;;;;;5057696;28;20544;-83
2024/03/02 09:08:06;;;;;;;2.33;1.30;;;12.20;99.90;;;;;;5056531;28;20470;-80
2024/03/02 09:10:33;;;;;;;4.43;1.23;;;12.30;99.90;;;;;;5062396;28;20523;-81
2024/03/02 09:13:01;;;;;;;1.80;1.00;;;12.60;99.90;;;;;;5061232;28;20547;-80
2024/03/02 09:15:28;;;;;;;2.80;1.90;;;12.90;99.90;;;;;;5060323;28;20490;-81
2024/03/02 09:17:55;;;;;;;2.20;1.23;;;13.10;99.90;;;;;;5060071;28;20535;-81
2024/03/02 09:20:22;;;;;;;3.30;1.30;;;13.40;99.90;;;;;;5059942;28;20897;-81
2024/03/02 09:22:49;;;;;;;3.50;1.87;;;13.60;99.90;;;;;;5058419;28;20882;-80
2024/03/02 09:25:16;;;;;;;2.33;1.60;;;13.80;99.90;;;;;;5059676;28;20540;-80
2024/03/02 09:27:43;;;;;;;2.13;1.00;;;14.50;99.90;;;;;;5059247;28;20549;-81
2024/03/02 09:30:13;;;;;;;2.27;1.30;;;14.80;99.90;;;;;;5060228;28;20578;-80
2024/03/02 09:32:40;;;;;;;3.10;1.23;;;15.60;99.90;;;;;;5059974;28;20459;-81
2024/03/02 09:35:08;;;;;;;2.40;1.20;;;16.70;98.60;;;;;;5058776;28;21207;-80
2024/03/02 09:37:35;;;;;;;2.70;1.30;;;17.10;95.80;;;;;;5058153;28;20451;-82
2024/03/02 09:40:02;;;;;;;4.20;1.40;;;17.90;93.10;;;;;;5051730;28;20523;-81
2024/03/02 09:42:30;;;;;;;3.00;1.10;;;17.90;92.40;;;;;;5059456;28;20546;-82
2024/03/02 09:44:57;;;;;;;2.50;1.20;;;17.60;91.10;;;;;;5059103;28;20867;-81
2024/03/02 09:47:26;;;;;;;2.33;0.90;;;17.40;90.50;;;;;;5058578;28;20488;-80
2024/03/02 09:49:53;;;;;;;3.30;1.10;;;17.30;90.80;;;;;;5063624;28;20560;-81
2024/03/02 09:52:20;;;;;;;3.23;1.20;;;17.40;91.30;;;;;;5064005;28;20464;-81
2024/03/02 09:54:49;;;;;;;2.10;1.03;;;17.00;89.10;;;;;;5058382;28;20567;-81
2024/03/02 09:57:16;;;;;;;2.63;1.37;;;17.30;89.80;;;;;;5057249;28;20462;-80
2024/03/02 09:59:44;;;;;;;1.93;1.30;;;17.00;89.40;;;;;;5055882;28;20456;-80
2024/03/02 10:02:11;;;;;;;2.17;1.07;;;16.70;88.80;;;;;;5058296;28;20463;-81
2024/03/02 10:04:39;;;;;;;1.80;1.00;;;16.90;88.40;;;;;;5058469;28;20490;-83
2024/03/02 10:07:13;;;;;;;1.80;0.97;;;16.80;88.10;;;;;;5059267;28;20535;-81
2024/03/02 10:09:41;;;;;;;3.10;1.10;;;16.90;88.10;;;;;;5060118;28;20574;-83
2024/03/02 10:12:11;;;;;;;2.20;1.00;;;16.50;88.40;;;;;;5052479;28;20467;-83
2024/03/02 10:14:38;;;;;;;1.80;1.10;;;16.40;89.20;;;;;;5059052;28;20515;-82
2024/03/02 10:17:06;;;;;;;2.10;1.00;;;16.30;87.60;;;;;;5059850;28;20455;-83
2024/03/02 10:19:34;;;;;;;3.50;0.97;;;15.90;89.60;;;;;;5058948;28;20456;-81
2024/03/02 10:22:04;;;;;;;3.20;1.43;;;15.80;89.70;;;;;;5051344;28;20464;-81
2024/03/02 10:24:38;;;;;;;1.93;0.80;;;15.50;88.90;;;;;;5058251;28;20516;-81
2024/03/02 10:27:09;;;;;;;1.80;1.17;;;15.50;89.80;;;;;;5054578;28;20456;-81
2024/03/02 10:29:39;;;;;;;2.20;0.90;;;16.30;91.00;;;;;;5065292;28;20453;-81
2024/03/02 10:32:07;;;;;;;1.90;1.00;;;17.20;89.30;;;;;;5066432;28;20437;-79
2024/03/02 10:34:34;;;;;;;1.83;1.13;;;18.20;87.30;;;;;;5065946;28;20468;-81
2024/03/02 10:37:02;;;;;;;3.00;1.10;;;19.10;85.10;;;;;;5064168;28;20494;-82
2024/03/02 10:39:31;;;;;;;2.37;1.07;;;20.80;85.20;;;;;;5060139;28;20478;-82
2024/03/02 10:41:59;;;;;;;2.47;1.23;;;22.30;79.40;;;;;;5058245;28;20869;-82
2024/03/02 10:44:27;;;;;;;3.20;1.77;;;22.90;76.30;;;;;;5055705;28;20502;-82
2024/03/02 10:46:56;;;;;;;1.80;0.90;;;23.30;74.00;;;;;;5058070;28;20505;-83
2024/03/02 10:49:25;;;;;;;2.00;1.00;;;23.90;72.40;;;;;;5057671;28;20447;-83
2024/03/02 10:51:52;;;;;;;2.23;1.00;;;25.60;71.20;;;;;;5057890;28;20480;-83
2024/03/02 10:54:25;;;;;;;2.10;1.20;;;26.00;64.80;;;;;;5057432;28;20554;-79
2024/03/02 10:56:53;;;;;;;2.87;1.03;;;26.80;61.00;;;;;;5055028;28;20459;-83
2024/03/02 10:59:27;;;;;;;2.03;0.93;;;26.30;60.90;;;;;;5058697;28;20598;-83
2024/03/02 11:01:57;;;;;;;2.60;1.40;;;27.50;59.40;;;;;;5051015;28;20428;-82
2024/03/02 11:04:26;;;;;;;2.70;1.43;;;26.90;57.10;;;;;;5058889;28;20476;-82
2024/03/02 11:06:53;;;;;;;1.83;1.20;;;26.30;57.10;;;;;;5059031;28;20428;-82
2024/03/02 11:09:23;;;;;;;1.70;1.03;;;26.90;56.90;;;;;;5059595;28;20444;-82
2024/03/02 11:11:57;;;;;;;2.83;1.17;;;26.20;56.90;;;;;;5060605;28;20486;-82
2024/03/02 11:14:26;;;;;;;1.83;0.97;;;26.10;56.30;;;;;;5062726;28;20519;-81
2024/03/02 11:16:54;;;;;;;2.03;1.00;;;27.10;56.00;;;;;;5061113;28;20456;-80
2024/03/02 11:19:21;;;;;;;1.97;1.00;;;27.80;55.00;;;;;;5062736;28;20494;-85
2024/03/02 11:21:49;;;;;;;3.83;1.20;;;29.30;55.00;;;;;;5063508;28;20451;-80
2024/03/02 11:24:36;;;;;;;1.80;0.87;;;29.90;54.20;;;;;;5066208;28;20463;-81
2024/03/02 11:27:07;;;;;;;2.70;1.03;;;29.30;52.70;;;;;;5064409;28;20476;-82
2024/03/02 11:29:47;;;;;;;2.10;1.17;;;27.80;52.20;;;;;;5065820;28;20456;-82
2024/03/02 11:32:19;;;;;;;2.83;1.30;;;28.50;52.20;;;;;;5061565;28;20470;-82
2024/03/02 11:34:50;;;;;;;1.63;0.83;;;29.30;51.60;;;;;;5059687;28;20479;-81
2024/03/02 11:37:18;;;;;;;2.53;1.20;;;28.70;51.50;;;;;;5058116;28;20437;-80
2024/03/02 11:39:47;;;;;;;1.90;1.20;;;29.20;52.70;;;;;;5056915;28;20457;-82
2024/03/02 11:42:16;;;;;;;2.53;1.20;;;29.30;51.00;;;;;;5062125;28;20476;-83
2024/03/02 11:44:44;;;;;;;2.47;1.40;;;29.60;52.10;;;;;;5062336;28;20476;-82
2024/03/02 11:47:15;;;;;;;2.33;1.20;;;29.80;50.10;;;;;;5061297;28;20436;-83
2024/03/02 11:49:43;;;;;;;1.70;0.90;;;30.00;50.90;;;;;;5062349;28;20448;-84
2024/03/02 11:52:12;;;;;;;2.10;1.00;;;29.90;49.10;;;;;;5061144;28;20522;-83
2024/03/02 11:54:40;;;;;;;1.60;0.80;;;31.50;49.40;;;;;;5066442;28;20491;-83
2024/03/02 11:57:09;;;;;;;1.97;1.00;;;31.90;48.80;;;;;;5062434;28;20444;-84
2024/03/02 11:59:36;;;;;;;2.03;1.10;;;32.80;47.80;;;;;;5065730;28;20976;-84
2024/03/02 12:02:03;;;;;;;2.27;1.00;;;32.80;46.40;;;;;;5062821;28;21047;-83
2024/03/02 12:04:31;;;;;;;2.93;1.07;;;32.10;46.70;;;;;;5063558;28;20479;-83
2024/03/02 12:07:00;;;;;;;1.90;1.27;;;32.00;46.80;;;;;;5062512;28;20437;-83
2024/03/02 12:09:27;;;;;;;2.20;1.00;;;30.90;46.20;;;;;;5059451;28;20531;-83
2024/03/02 12:12:05;;;;;;;2.00;0.90;;;30.80;46.60;;;;;;5062278;28;20530;-84
2024/03/02 12:14:35;;;;;;;2.47;0.90;;;29.80;47.30;;;;;;5062570;28;20496;-83
2024/03/02 12:17:02;;;;;;;2.30;1.30;;;29.10;49.40;;;;;;5059994;28;20482;-84
2024/03/02 12:19:30;;;;;;;1.63;0.93;;;29.50;49.20;;;;;;5060604;28;20447;-81
2024/03/02 12:21:57;;;;;;;2.10;1.00;;;30.10;47.40;;;;;;5059103;28;20451;-83
2024/03/02 12:24:25;;;;;;;1.80;1.00;;;29.00;48.60;;;;;;5060691;28;20559;-84
2024/03/02 12:26:52;;;;;;;3.30;1.00;;;29.50;48.20;;;;;;5059919;28;20440;-85
2024/03/02 12:29:21;;;;;;;3.10;1.13;;;30.30;47.60;;;;;;5060261;28;20458;-84
2024/03/02 12:31:52;;;;;;;2.10;1.00;;;28.70;48.60;;;;;;5063606;28;20482;-84
2024/03/02 12:34:19;;;;;;;1.80;0.90;;;27.30;48.40;;;;;;5066511;28;20562;-83
2024/03/02 12:36:52;;;;;;;3.90;1.20;;;26.10;49.10;;;;;;5057875;28;20509;-83
2024/03/02 12:39:20;;;;;;;2.73;1.40;;;25.70;50.90;;;;;;5059162;28;20459;-85
2024/03/02 12:41:50;;;;;;;2.73;0.97;;;26.20;50.60;;;;;;5057124;28;20472;-83
2024/03/02 12:44:17;;;;;;;2.10;1.03;;;26.10;50.40;;;;;;5063824;28;20467;-80
2024/03/02 12:46:44;;;;;;;3.10;0.83;;;25.00;50.20;;;;;;5064238;28;20451;-80
2024/03/02 12:49:14;;;;;;;2.90;1.03;;;24.30;50.80;;;;;;5063957;28;20920;-81
2024/03/02 12:51:41;;;;;;;2.27;1.10;;;23.70;52.00;;;;;;5054499;28;20499;-81
2024/03/02 12:54:10;;;;;;;1.90;1.10;;;23.40;51.80;;;;;;5059351;28;20943;-81
2024/03/02 12:56:37;;;;;;;2.33;0.90;;;23.00;52.40;;;;;;5064731;28;20448;-81
2024/03/02 12:59:04;;;;;;;2.07;0.97;;;22.30;52.80;;;;;;5052581;28;20475;-82